Rew, Pennsylvania
Current Conditions -  °F | °C
As of 12:53 PM on Tuesday 21 Oct 2014 (Local Time) from KBFD Reporting Station
Overcast Overcast  
Wind Chill: 50°   Ceiling: 2200
Heat Index: 50°   Visibility: 8mi
Dew Point: 45°   Wind: 5mph
Humidity: 83%   Direction: 290°WNW
Pressure: 29.86"   Gusts: NA
Location:  41.9°N, 78.54°W
Report Text: KBFD 211653Z AUTO 29004KT 8SM FEW012 BKN022 OVC038 10/07 A2986 RMK AO2 SLP113 T01000072
Loading
Personal Weather Stations






























Interactive Weather Map
Tropical Storm Tracking
New forecast layout! Learn more

10-Day Weather Forecast

Advertisements
Track Severe Weather on mobile